sensor_id;sensor_type;location;lat;lon;timestamp;temperature;humidity
8095;DHT22;4090;49.270;8.696;2023-06-24T00:00:19;23.90;96.90
8095;DHT22;4090;49.270;8.696;2023-06-24T00:03:01;23.80;96.40
8095;DHT22;4090;49.270;8.696;2023-06-24T00:05:44;23.80;96.60
8095;DHT22;4090;49.270;8.696;2023-06-24T00:08:29;23.80;97.00
8095;DHT22;4090;49.270;8.696;2023-06-24T00:11:15;23.80;97.20
8095;DHT22;4090;49.270;8.696;2023-06-24T00:13:57;23.80;96.70
8095;DHT22;4090;49.270;8.696;2023-06-24T00:16:39;23.70;97.30
8095;DHT22;4090;49.270;8.696;2023-06-24T00:19:24;23.70;96.90
8095;DHT22;4090;49.270;8.696;2023-06-24T00:22:07;23.70;97.10
8095;DHT22;4090;49.270;8.696;2023-06-24T00:24:49;23.70;97.40
8095;DHT22;4090;49.270;8.696;2023-06-24T00:27:31;23.60;97.30
8095;DHT22;4090;49.270;8.696;2023-06-24T00:30:13;23.60;97.10
8095;DHT22;4090;49.270;8.696;2023-06-24T00:32:55;23.50;97.10
8095;DHT22;4090;49.270;8.696;2023-06-24T00:35:36;23.60;97.40
8095;DHT22;4090;49.270;8.696;2023-06-24T00:38:20;23.60;97.40
8095;DHT22;4090;49.270;8.696;2023-06-24T00:41:01;23.50;97.70
8095;DHT22;4090;49.270;8.696;2023-06-24T00:43:43;23.50;98.10
8095;DHT22;4090;49.270;8.696;2023-06-24T00:46:26;23.50;97.50
8095;DHT22;4090;49.270;8.696;2023-06-24T00:49:08;23.40;98.10
8095;DHT22;4090;49.270;8.696;2023-06-24T00:51:50;23.40;97.70
8095;DHT22;4090;49.270;8.696;2023-06-24T00:54:33;23.40;97.70
8095;DHT22;4090;49.270;8.696;2023-06-24T00:57:15;23.40;98.10
8095;DHT22;4090;49.270;8.696;2023-06-24T00:59:59;23.40;98.00
8095;DHT22;4090;49.270;8.696;2023-06-24T01:02:41;23.40;98.10
8095;DHT22;4090;49.270;8.696;2023-06-24T01:05:24;23.30;98.20
8095;DHT22;4090;49.270;8.696;2023-06-24T01:08:07;23.30;98.10
8095;DHT22;4090;49.270;8.696;2023-06-24T01:10:51;23.20;98.10
8095;DHT22;4090;49.270;8.696;2023-06-24T01:13:33;23.20;98.30
8095;DHT22;4090;49.270;8.696;2023-06-24T01:16:18;23.20;98.60
8095;DHT22;4090;49.270;8.696;2023-06-24T01:19:11;23.20;98.40
8095;DHT22;4090;49.270;8.696;2023-06-24T01:22:06;23.10;98.80
8095;DHT22;4090;49.270;8.696;2023-06-24T01:25:04;23.10;98.90
8095;DHT22;4090;49.270;8.696;2023-06-24T01:28:10;23.10;99.00
8095;DHT22;4090;49.270;8.696;2023-06-24T01:31:35;23.10;99.00
8095;DHT22;4090;49.270;8.696;2023-06-24T01:34:25;23.00;98.90
8095;DHT22;4090;49.270;8.696;2023-06-24T01:37:12;22.90;99.00
8095;DHT22;4090;49.270;8.696;2023-06-24T01:40:00;22.90;98.90
8095;DHT22;4090;49.270;8.696;2023-06-24T01:42:47;22.90;99.10
8095;DHT22;4090;49.270;8.696;2023-06-24T01:45:32;22.90;99.40
8095;DHT22;4090;49.270;8.696;2023-06-24T01:48:23;22.90;99.40
8095;DHT22;4090;49.270;8.696;2023-06-24T01:51:09;22.80;99.60
8095;DHT22;4090;49.270;8.696;2023-06-24T01:53:58;22.80;99.60
8095;DHT22;4090;49.270;8.696;2023-06-24T01:56:42;22.80;99.70
8095;DHT22;4090;49.270;8.696;2023-06-24T01:59:25;22.70;99.70
8095;DHT22;4090;49.270;8.696;2023-06-24T02:02:15;22.70;99.60
8095;DHT22;4090;49.270;8.696;2023-06-24T02:05:03;22.70;99.90
8095;DHT22;4090;49.270;8.696;2023-06-24T02:07:48;22.70;99.90
8095;DHT22;4090;49.270;8.696;2023-06-24T02:10:32;22.70;99.90
8095;DHT22;4090;49.270;8.696;2023-06-24T02:13:15;22.70;99.90
8095;DHT22;4090;49.270;8.696;2023-06-24T02:15:59;22.70;99.90
8095;DHT22;4090;49.270;8.696;2023-06-24T02:18:44;22.60;99.90
8095;DHT22;4090;49.270;8.696;2023-06-24T02:21:30;22.60;99.90
8095;DHT22;4090;49.270;8.696;2023-06-24T02:24:12;22.60;99.90
8095;DHT22;4090;49.270;8.696;2023-06-24T02:26:56;22.60;99.90
8095;DHT22;4090;49.270;8.696;2023-06-24T02:29:39;22.60;99.90
8095;DHT22;4090;49.270;8.696;2023-06-24T02:32:21;22.60;99.90
8095;DHT22;4090;49.270;8.696;2023-06-24T02:35:04;22.60;99.90
8095;DHT22;4090;49.270;8.696;2023-06-24T02:37:47;22.60;99.90
8095;DHT22;4090;49.270;8.696;2023-06-24T02:40:31;22.60;99.90
8095;DHT22;4090;49.270;8.696;2023-06-24T02:43:13;22.50;99.90
8095;DHT22;4090;49.270;8.696;2023-06-24T02:45:55;22.50;99.90
8095;DHT22;4090;49.270;8.696;2023-06-24T02:48:39;22.50;99.90
8095;DHT22;4090;49.270;8.696;2023-06-24T02:51:21;22.40;99.90
8095;DHT22;4090;49.270;8.696;2023-06-24T02:54:05;22.40;99.90
8095;DHT22;4090;49.270;8.696;2023-06-24T02:57:25;22.40;99.90
8095;DHT22;4090;49.270;8.696;2023-06-24T03:00:26;22.40;99.90
8095;DHT22;4090;49.270;8.696;2023-06-24T03:03:28;22.30;99.90
8095;DHT22;4090;49.270;8.696;2023-06-24T03:06:11;22.30;99.90
8095;DHT22;4090;49.270;8.696;2023-06-24T03:08:57;22.30;99.90
8095;DHT22;4090;49.270;8.696;2023-06-24T03:11:42;22.30;99.90
8095;DHT22;4090;49.270;8.696;2023-06-24T03:14:25;22.30;99.90
8095;DHT22;4090;49.270;8.696;2023-06-24T03:17:08;22.30;99.90
8095;DHT22;4090;49.270;8.696;2023-06-24T03:19:50;22.30;99.90
8095;DHT22;4090;49.270;8.696;2023-06-24T03:22:32;22.30;99.90
8095;DHT22;4090;49.270;8.696;2023-06-24T03:25:14;22.20;99.90
8095;DHT22;4090;49.270;8.696;2023-06-24T03:27:58;22.20;99.90
8095;DHT22;4090;49.270;8.696;2023-06-24T03:30:42;22.20;99.90
8095;DHT22;4090;49.270;8.696;2023-06-24T03:33:26;22.20;99.90
8095;DHT22;4090;49.270;8.696;2023-06-24T03:36:08;22.20;99.90
8095;DHT22;4090;49.270;8.696;2023-06-24T03:38:50;22.20;99.90
8095;DHT22;4090;49.270;8.696;2023-06-24T03:41:32;22.10;99.90
8095;DHT22;4090;49.270;8.696;2023-06-24T03:44:15;22.10;99.90
8095;DHT22;4090;49.270;8.696;2023-06-24T03:46:57;22.10;99.90
8095;DHT22;4090;49.270;8.696;2023-06-24T03:49:39;22.10;99.90
8095;DHT22;4090;49.270;8.696;2023-06-24T03:52:21;22.10;99.90
8095;DHT22;4090;49.270;8.696;2023-06-24T03:55:04;22.10;99.90
8095;DHT22;4090;49.270;8.696;2023-06-24T03:57:46;22.10;99.90
8095;DHT22;4090;49.270;8.696;2023-06-24T04:00:30;22.00;99.90
8095;DHT22;4090;49.270;8.696;2023-06-24T04:03:11;22.00;99.90
8095;DHT22;4090;49.270;8.696;2023-06-24T04:05:54;22.00;99.90
8095;DHT22;4090;49.270;8.696;2023-06-24T04:08:36;22.00;99.90
8095;DHT22;4090;49.270;8.696;2023-06-24T04:11:20;22.00;99.90
8095;DHT22;4090;49.270;8.696;2023-06-24T04:14:02;22.00;99.90
8095;DHT22;4090;49.270;8.696;2023-06-24T04:16:48;22.00;99.90
8095;DHT22;4090;49.270;8.696;2023-06-24T04:19:30;22.00;99.90
8095;DHT22;4090;49.270;8.696;2023-06-24T04:22:12;22.00;99.90
8095;DHT22;4090;49.270;8.696;2023-06-24T04:24:54;21.90;99.90
8095;DHT22;4090;49.270;8.696;2023-06-24T04:27:38;21.90;99.90
8095;DHT22;4090;49.270;8.696;2023-06-24T04:30:22;21.90;99.90
8095;DHT22;4090;49.270;8.696;2023-06-24T04:33:05;21.90;99.90
8095;DHT22;4090;49.270;8.696;2023-06-24T04:35:48;21.90;99.90
8095;DHT22;4090;49.270;8.696;2023-06-24T04:38:31;21.90;99.90
8095;DHT22;4090;49.270;8.696;2023-06-24T04:41:15;21.90;99.90
8095;DHT22;4090;49.270;8.696;2023-06-24T04:43:59;21.90;99.90
8095;DHT22;4090;49.270;8.696;2023-06-24T04:46:40;21.90;99.90
8095;DHT22;4090;49.270;8.696;2023-06-24T04:49:24;21.90;99.90
8095;DHT22;4090;49.270;8.696;2023-06-24T04:52:06;21.90;99.90
8095;DHT22;4090;49.270;8.696;2023-06-24T04:54:48;21.90;99.90
8095;DHT22;4090;49.270;8.696;2023-06-24T04:57:31;21.90;99.90
8095;DHT22;4090;49.270;8.696;2023-06-24T05:00:14;21.90;99.90
8095;DHT22;4090;49.270;8.696;2023-06-24T05:02:56;21.90;99.90
8095;DHT22;4090;49.270;8.696;2023-06-24T05:05:39;21.90;99.90
8095;DHT22;4090;49.270;8.696;2023-06-24T05:08:21;21.90;99.90
8095;DHT22;4090;49.270;8.696;2023-06-24T05:11:03;21.90;99.90
8095;DHT22;4090;49.270;8.696;2023-06-24T05:13:46;21.90;99.90
8095;DHT22;4090;49.270;8.696;2023-06-24T05:16:27;21.90;99.90
8095;DHT22;4090;49.270;8.696;2023-06-24T05:19:09;21.90;99.90
8095;DHT22;4090;49.270;8.696;2023-06-24T05:21:52;21.90;99.90
8095;DHT22;4090;49.270;8.696;2023-06-24T05:24:34;21.90;99.90
8095;DHT22;4090;49.270;8.696;2023-06-24T05:27:16;21.90;99.90
8095;DHT22;4090;49.270;8.696;2023-06-24T05:29:59;21.90;99.90
8095;DHT22;4090;49.270;8.696;2023-06-24T05:32:40;21.80;99.90
8095;DHT22;4090;49.270;8.696;2023-06-24T05:35:22;21.90;99.90
8095;DHT22;4090;49.270;8.696;2023-06-24T05:38:05;21.90;99.90
8095;DHT22;4090;49.270;8.696;2023-06-24T05:40:47;21.90;99.90
8095;DHT22;4090;49.270;8.696;2023-06-24T05:43:29;21.90;99.90
8095;DHT22;4090;49.270;8.696;2023-06-24T05:46:11;21.90;99.90
8095;DHT22;4090;49.270;8.696;2023-06-24T05:48:53;21.90;99.90
8095;DHT22;4090;49.270;8.696;2023-06-24T05:51:35;21.90;99.90
8095;DHT22;4090;49.270;8.696;2023-06-24T05:54:18;21.90;99.90
8095;DHT22;4090;49.270;8.696;2023-06-24T05:57:00;22.00;99.90
8095;DHT22;4090;49.270;8.696;2023-06-24T05:59:42;21.90;99.90
8095;DHT22;4090;49.270;8.696;2023-06-24T06:02:23;21.90;99.90
8095;DHT22;4090;49.270;8.696;2023-06-24T06:05:06;22.00;99.90
8095;DHT22;4090;49.270;8.696;2023-06-24T06:07:47;22.00;99.90
8095;DHT22;4090;49.270;8.696;2023-06-24T06:10:31;21.90;99.90
8095;DHT22;4090;49.270;8.696;2023-06-24T06:13:12;22.00;99.90
8095;DHT22;4090;49.270;8.696;2023-06-24T06:15:54;21.90;99.90
8095;DHT22;4090;49.270;8.696;2023-06-24T06:18:36;21.90;99.90
8095;DHT22;4090;49.270;8.696;2023-06-24T06:21:18;22.00;99.90
8095;DHT22;4090;49.270;8.696;2023-06-24T06:24:00;22.00;99.90
8095;DHT22;4090;49.270;8.696;2023-06-24T06:26:44;22.00;99.90
8095;DHT22;4090;49.270;8.696;2023-06-24T06:29:26;21.90;99.90
8095;DHT22;4090;49.270;8.696;2023-06-24T06:32:08;22.00;99.90
8095;DHT22;4090;49.270;8.696;2023-06-24T06:34:50;22.00;99.90
8095;DHT22;4090;49.270;8.696;2023-06-24T06:37:31;22.00;99.90
8095;DHT22;4090;49.270;8.696;2023-06-24T06:40:13;22.00;99.90
8095;DHT22;4090;49.270;8.696;2023-06-24T06:42:57;22.00;99.90
8095;DHT22;4090;49.270;8.696;2023-06-24T06:45:38;22.00;99.90
8095;DHT22;4090;49.270;8.696;2023-06-24T06:48:20;22.00;99.90
8095;DHT22;4090;49.270;8.696;2023-06-24T06:51:02;22.00;99.90
8095;DHT22;4090;49.270;8.696;2023-06-24T06:53:44;22.10;99.90
8095;DHT22;4090;49.270;8.696;2023-06-24T06:56:26;22.10;99.90
8095;DHT22;4090;49.270;8.696;2023-06-24T06:59:09;22.10;99.90
8095;DHT22;4090;49.270;8.696;2023-06-24T07:01:51;22.10;99.90
8095;DHT22;4090;49.270;8.696;2023-06-24T07:04:33;22.10;99.90
8095;DHT22;4090;49.270;8.696;2023-06-24T07:07:15;22.10;99.90
8095;DHT22;4090;49.270;8.696;2023-06-24T07:09:57;22.20;99.90
8095;DHT22;4090;49.270;8.696;2023-06-24T07:12:38;22.20;99.90
8095;DHT22;4090;49.270;8.696;2023-06-24T07:15:22;22.20;99.90
8095;DHT22;4090;49.270;8.696;2023-06-24T07:18:04;22.20;99.90
8095;DHT22;4090;49.270;8.696;2023-06-24T07:20:46;22.20;99.90
8095;DHT22;4090;49.270;8.696;2023-06-24T07:23:28;22.20;99.90
8095;DHT22;4090;49.270;8.696;2023-06-24T07:26:09;22.20;99.90
8095;DHT22;4090;49.270;8.696;2023-06-24T07:28:51;22.20;99.90
8095;DHT22;4090;49.270;8.696;2023-06-24T07:31:35;22.30;99.90
8095;DHT22;4090;49.270;8.696;2023-06-24T07:34:17;22.30;99.90
8095;DHT22;4090;49.270;8.696;2023-06-24T07:36:59;22.30;99.90
8095;DHT22;4090;49.270;8.696;2023-06-24T07:39:41;22.30;99.90
8095;DHT22;4090;49.270;8.696;2023-06-24T07:42:23;22.30;99.90
8095;DHT22;4090;49.270;8.696;2023-06-24T07:45:06;22.30;99.90
8095;DHT22;4090;49.270;8.696;2023-06-24T07:47:49;22.30;99.90
8095;DHT22;4090;49.270;8.696;2023-06-24T07:50:31;22.30;99.90
8095;DHT22;4090;49.270;8.696;2023-06-24T07:53:13;22.40;99.90
8095;DHT22;4090;49.270;8.696;2023-06-24T07:55:54;22.40;99.90
8095;DHT22;4090;49.270;8.696;2023-06-24T07:58:36;22.40;99.90
8095;DHT22;4090;49.270;8.696;2023-06-24T08:01:18;22.40;99.90
8095;DHT22;4090;49.270;8.696;2023-06-24T08:04:02;22.50;99.90
8095;DHT22;4090;49.270;8.696;2023-06-24T08:06:43;22.50;99.90
8095;DHT22;4090;49.270;8.696;2023-06-24T08:09:25;22.50;99.90
8095;DHT22;4090;49.270;8.696;2023-06-24T08:12:08;22.50;99.90
8095;DHT22;4090;49.270;8.696;2023-06-24T08:14:50;22.50;99.90
8095;DHT22;4090;49.270;8.696;2023-06-24T08:17:32;22.60;99.90
8095;DHT22;4090;49.270;8.696;2023-06-24T08:20:15;22.60;99.90
8095;DHT22;4090;49.270;8.696;2023-06-24T08:22:57;22.60;99.90
8095;DHT22;4090;49.270;8.696;2023-06-24T08:25:39;22.60;99.90
8095;DHT22;4090;49.270;8.696;2023-06-24T08:28:21;22.60;99.90
8095;DHT22;4090;49.270;8.696;2023-06-24T08:31:03;22.70;99.90
8095;DHT22;4090;49.270;8.696;2023-06-24T08:33:45;22.70;99.90
8095;DHT22;4090;49.270;8.696;2023-06-24T08:36:28;22.70;99.90
8095;DHT22;4090;49.270;8.696;2023-06-24T08:39:10;22.80;99.90
8095;DHT22;4090;49.270;8.696;2023-06-24T08:41:53;22.80;99.90
8095;DHT22;4090;49.270;8.696;2023-06-24T08:44:35;22.80;99.90
8095;DHT22;4090;49.270;8.696;2023-06-24T08:47:17;22.90;99.90
8095;DHT22;4090;49.270;8.696;2023-06-24T08:50:03;22.90;99.90
8095;DHT22;4090;49.270;8.696;2023-06-24T08:52:51;23.00;99.90
8095;DHT22;4090;49.270;8.696;2023-06-24T08:55:39;23.10;99.50
8095;DHT22;4090;49.270;8.696;2023-06-24T08:58:21;23.10;99.00
8095;DHT22;4090;49.270;8.696;2023-06-24T09:01:03;23.10;99.90
8095;DHT22;4090;49.270;8.696;2023-06-24T09:03:45;23.10;99.90
8095;DHT22;4090;49.270;8.696;2023-06-24T09:06:27;23.10;99.90
8095;DHT22;4090;49.270;8.696;2023-06-24T09:09:19;23.10;99.90
8095;DHT22;4090;49.270;8.696;2023-06-24T09:12:01;23.10;99.90
8095;DHT22;4090;49.270;8.696;2023-06-24T09:14:48;23.10;99.90
8095;DHT22;4090;49.270;8.696;2023-06-24T09:17:30;23.10;99.90
8095;DHT22;4090;49.270;8.696;2023-06-24T09:20:12;23.10;99.90
8095;DHT22;4090;49.270;8.696;2023-06-24T09:22:58;23.20;99.90
8095;DHT22;4090;49.270;8.696;2023-06-24T09:25:41;23.20;99.90
8095;DHT22;4090;49.270;8.696;2023-06-24T09:28:26;23.30;99.00
8095;DHT22;4090;49.270;8.696;2023-06-24T09:31:09;23.30;99.20
8095;DHT22;4090;49.270;8.696;2023-06-24T09:33:51;23.30;99.90
8095;DHT22;4090;49.270;8.696;2023-06-24T09:36:33;23.30;99.90
8095;DHT22;4090;49.270;8.696;2023-06-24T09:39:15;23.30;99.90
8095;DHT22;4090;49.270;8.696;2023-06-24T09:42:00;23.40;99.90
8095;DHT22;4090;49.270;8.696;2023-06-24T09:44:42;23.40;99.90
8095;DHT22;4090;49.270;8.696;2023-06-24T09:47:24;23.40;99.90
8095;DHT22;4090;49.270;8.696;2023-06-24T09:50:08;23.40;99.90
8095;DHT22;4090;49.270;8.696;2023-06-24T09:52:52;23.40;99.90
8095;DHT22;4090;49.270;8.696;2023-06-24T09:55:36;23.50;99.70
8095;DHT22;4090;49.270;8.696;2023-06-24T09:58:25;23.50;99.90
8095;DHT22;4090;49.270;8.696;2023-06-24T10:01:08;23.60;99.00
8095;DHT22;4090;49.270;8.696;2023-06-24T10:03:50;23.60;99.80
8095;DHT22;4090;49.270;8.696;2023-06-24T10:06:33;23.70;98.30
8095;DHT22;4090;49.270;8.696;2023-06-24T10:09:15;23.80;97.40
8095;DHT22;4090;49.270;8.696;2023-06-24T10:11:58;23.80;96.80
8095;DHT22;4090;49.270;8.696;2023-06-24T10:14:42;24.00;95.30
8095;DHT22;4090;49.270;8.696;2023-06-24T10:17:24;24.00;95.40
8095;DHT22;4090;49.270;8.696;2023-06-24T10:20:07;24.10;95.30
8095;DHT22;4090;49.270;8.696;2023-06-24T10:22:50;24.10;96.70
8095;DHT22;4090;49.270;8.696;2023-06-24T10:25:36;24.20;95.40
8095;DHT22;4090;49.270;8.696;2023-06-24T10:28:18;24.40;95.00
8095;DHT22;4090;49.270;8.696;2023-06-24T10:31:01;24.40;96.30
8095;DHT22;4090;49.270;8.696;2023-06-24T10:33:53;24.40;95.90
8095;DHT22;4090;49.270;8.696;2023-06-24T10:36:37;24.30;97.30
8095;DHT22;4090;49.270;8.696;2023-06-24T10:39:40;24.30;96.00
8095;DHT22;4090;49.270;8.696;2023-06-24T10:42:32;24.40;96.00
8095;DHT22;4090;49.270;8.696;2023-06-24T10:45:17;24.50;94.50
8095;DHT22;4090;49.270;8.696;2023-06-24T10:48:01;24.70;94.40
8095;DHT22;4090;49.270;8.696;2023-06-24T10:50:44;24.80;94.00
8095;DHT22;4090;49.270;8.696;2023-06-24T10:53:26;24.90;95.20
8095;DHT22;4090;49.270;8.696;2023-06-24T10:56:11;24.90;93.80
8095;DHT22;4090;49.270;8.696;2023-06-24T10:58:55;25.00;93.00
8095;DHT22;4090;49.270;8.696;2023-06-24T11:01:52;25.00;94.50
8095;DHT22;4090;49.270;8.696;2023-06-24T11:04:42;25.10;95.00
8095;DHT22;4090;49.270;8.696;2023-06-24T11:07:25;25.10;95.70
8095;DHT22;4090;49.270;8.696;2023-06-24T11:10:10;25.10;95.40
8095;DHT22;4090;49.270;8.696;2023-06-24T11:12:52;25.30;93.90
8095;DHT22;4090;49.270;8.696;2023-06-24T11:15:34;25.40;94.30
8095;DHT22;4090;49.270;8.696;2023-06-24T11:18:15;25.50;94.10
8095;DHT22;4090;49.270;8.696;2023-06-24T11:20:59;25.50;93.60
8095;DHT22;4090;49.270;8.696;2023-06-24T11:23:41;25.60;93.70
8095;DHT22;4090;49.270;8.696;2023-06-24T11:26:23;25.70;92.90
8095;DHT22;4090;49.270;8.696;2023-06-24T11:29:09;25.60;93.90
8095;DHT22;4090;49.270;8.696;2023-06-24T11:31:51;25.70;91.10
8095;DHT22;4090;49.270;8.696;2023-06-24T11:34:33;25.90;89.40
8095;DHT22;4090;49.270;8.696;2023-06-24T11:37:18;25.90;92.60
8095;DHT22;4090;49.270;8.696;2023-06-24T11:40:02;26.00;90.10
8095;DHT22;4090;49.270;8.696;2023-06-24T11:42:45;26.10;90.30
8095;DHT22;4090;49.270;8.696;2023-06-24T11:45:28;26.10;89.80
8095;DHT22;4090;49.270;8.696;2023-06-24T11:48:10;26.10;91.70
8095;DHT22;4090;49.270;8.696;2023-06-24T11:50:53;26.20;90.50
8095;DHT22;4090;49.270;8.696;2023-06-24T11:53:41;26.30;90.70
8095;DHT22;4090;49.270;8.696;2023-06-24T11:56:34;26.30;89.60
8095;DHT22;4090;49.270;8.696;2023-06-24T11:59:17;26.60;86.70
8095;DHT22;4090;49.270;8.696;2023-06-24T12:01:59;26.70;84.50
8095;DHT22;4090;49.270;8.696;2023-06-24T12:04:44;26.70;86.50
8095;DHT22;4090;49.270;8.696;2023-06-24T12:07:26;26.70;87.80
8095;DHT22;4090;49.270;8.696;2023-06-24T12:10:10;26.70;85.30
8095;DHT22;4090;49.270;8.696;2023-06-24T12:12:52;26.80;84.40
8095;DHT22;4090;49.270;8.696;2023-06-24T12:15:34;27.00;82.10
8095;DHT22;4090;49.270;8.696;2023-06-24T12:18:16;27.40;75.80
8095;DHT22;4090;49.270;8.696;2023-06-24T12:20:58;27.30;82.30
8095;DHT22;4090;49.270;8.696;2023-06-24T12:23:40;27.40;79.00
8095;DHT22;4090;49.270;8.696;2023-06-24T12:26:23;27.60;78.70
8095;DHT22;4090;49.270;8.696;2023-06-24T12:29:05;27.70;75.70
8095;DHT22;4090;49.270;8.696;2023-06-24T12:31:47;28.00;71.10
8095;DHT22;4090;49.270;8.696;2023-06-24T12:34:29;27.50;75.70
8095;DHT22;4090;49.270;8.696;2023-06-24T12:37:10;27.60;74.90
8095;DHT22;4090;49.270;8.696;2023-06-24T12:39:52;27.70;78.20
8095;DHT22;4090;49.270;8.696;2023-06-24T12:42:35;27.90;74.50
8095;DHT22;4090;49.270;8.696;2023-06-24T12:45:17;28.10;73.50
8095;DHT22;4090;49.270;8.696;2023-06-24T12:48:00;28.30;72.70
8095;DHT22;4090;49.270;8.696;2023-06-24T12:50:42;28.30;73.70
8095;DHT22;4090;49.270;8.696;2023-06-24T12:53:24;28.40;76.20
8095;DHT22;4090;49.270;8.696;2023-06-24T12:56:06;28.40;74.50
8095;DHT22;4090;49.270;8.696;2023-06-24T12:58:50;28.40;73.60
8095;DHT22;4090;49.270;8.696;2023-06-24T13:01:32;28.50;75.50
8095;DHT22;4090;49.270;8.696;2023-06-24T13:04:14;28.60;73.70
8095;DHT22;4090;49.270;8.696;2023-06-24T13:06:58;28.60;74.80
8095;DHT22;4090;49.270;8.696;2023-06-24T13:09:40;28.70;75.50
8095;DHT22;4090;49.270;8.696;2023-06-24T13:12:22;28.70;75.60
8095;DHT22;4090;49.270;8.696;2023-06-24T13:15:06;28.80;75.00
8095;DHT22;4090;49.270;8.696;2023-06-24T13:17:50;28.70;73.70
8095;DHT22;4090;49.270;8.696;2023-06-24T13:20:31;28.80;77.90
8095;DHT22;4090;49.270;8.696;2023-06-24T13:23:13;28.80;73.00
8095;DHT22;4090;49.270;8.696;2023-06-24T13:25:55;28.80;76.40
8095;DHT22;4090;49.270;8.696;2023-06-24T13:28:37;28.90;76.70
8095;DHT22;4090;49.270;8.696;2023-06-24T13:31:21;28.80;73.40
8095;DHT22;4090;49.270;8.696;2023-06-24T13:34:03;28.80;77.10
8095;DHT22;4090;49.270;8.696;2023-06-24T13:36:45;28.90;75.10
8095;DHT22;4090;49.270;8.696;2023-06-24T13:39:27;29.10;74.50
8095;DHT22;4090;49.270;8.696;2023-06-24T13:42:10;29.10;75.50
8095;DHT22;4090;49.270;8.696;2023-06-24T13:44:53;29.30;71.10
8095;DHT22;4090;49.270;8.696;2023-06-24T13:47:36;29.50;71.10
8095;DHT22;4090;49.270;8.696;2023-06-24T13:50:18;29.70;69.70
8095;DHT22;4090;49.270;8.696;2023-06-24T13:53:00;29.80;67.40
8095;DHT22;4090;49.270;8.696;2023-06-24T13:55:42;29.60;71.20
8095;DHT22;4090;49.270;8.696;2023-06-24T13:58:24;29.70;71.10
8095;DHT22;4090;49.270;8.696;2023-06-24T14:01:06;29.70;74.40
8095;DHT22;4090;49.270;8.696;2023-06-24T14:03:50;29.80;69.80
8095;DHT22;4090;49.270;8.696;2023-06-24T14:06:32;29.70;72.60
8095;DHT22;4090;49.270;8.696;2023-06-24T14:09:14;29.30;70.50
8095;DHT22;4090;49.270;8.696;2023-06-24T14:11:56;29.50;73.70
8095;DHT22;4090;49.270;8.696;2023-06-24T14:14:38;29.60;68.00
8095;DHT22;4090;49.270;8.696;2023-06-24T14:17:20;29.90;69.40
8095;DHT22;4090;49.270;8.696;2023-06-24T14:20:04;30.10;67.80
8095;DHT22;4090;49.270;8.696;2023-06-24T14:22:46;30.00;72.30
8095;DHT22;4090;49.270;8.696;2023-06-24T14:25:27;30.00;72.50
8095;DHT22;4090;49.270;8.696;2023-06-24T14:28:09;30.10;72.70
8095;DHT22;4090;49.270;8.696;2023-06-24T14:30:51;30.30;69.40
8095;DHT22;4090;49.270;8.696;2023-06-24T14:33:33;30.30;70.00
8095;DHT22;4090;49.270;8.696;2023-06-24T14:36:16;30.40;67.90
8095;DHT22;4090;49.270;8.696;2023-06-24T14:38:58;30.30;71.20
8095;DHT22;4090;49.270;8.696;2023-06-24T14:41:40;30.20;71.00
8095;DHT22;4090;49.270;8.696;2023-06-24T14:44:22;30.30;67.20
8095;DHT22;4090;49.270;8.696;2023-06-24T14:47:04;30.30;68.20
8095;DHT22;4090;49.270;8.696;2023-06-24T14:49:46;30.20;71.70
8095;DHT22;4090;49.270;8.696;2023-06-24T14:52:29;30.20;71.90
8095;DHT22;4090;49.270;8.696;2023-06-24T14:55:11;30.10;70.90
8095;DHT22;4090;49.270;8.696;2023-06-24T14:57:53;30.30;69.30
8095;DHT22;4090;49.270;8.696;2023-06-24T15:00:35;30.40;68.70
8095;DHT22;4090;49.270;8.696;2023-06-24T15:03:16;30.50;69.50
8095;DHT22;4090;49.270;8.696;2023-06-24T15:05:58;30.50;72.00
8095;DHT22;4090;49.270;8.696;2023-06-24T15:08:41;30.50;69.20
8095;DHT22;4090;49.270;8.696;2023-06-24T15:11:23;30.60;67.50
8095;DHT22;4090;49.270;8.696;2023-06-24T15:14:05;30.60;71.00
8095;DHT22;4090;49.270;8.696;2023-06-24T15:16:47;30.60;68.20
8095;DHT22;4090;49.270;8.696;2023-06-24T15:19:30;30.80;69.60
8095;DHT22;4090;49.270;8.696;2023-06-24T15:22:12;30.70;69.30
8095;DHT22;4090;49.270;8.696;2023-06-24T15:24:55;30.70;67.40
8095;DHT22;4090;49.270;8.696;2023-06-24T15:27:37;30.80;68.30
8095;DHT22;4090;49.270;8.696;2023-06-24T15:30:19;30.80;69.00
8095;DHT22;4090;49.270;8.696;2023-06-24T15:33:01;30.60;71.40
8095;DHT22;4090;49.270;8.696;2023-06-24T15:35:42;30.70;69.70
8095;DHT22;4090;49.270;8.696;2023-06-24T15:38:24;30.70;70.20
8095;DHT22;4090;49.270;8.696;2023-06-24T15:41:07;30.70;70.60
8095;DHT22;4090;49.270;8.696;2023-06-24T15:43:49;30.80;65.70
8095;DHT22;4090;49.270;8.696;2023-06-24T15:46:31;30.90;64.70
8095;DHT22;4090;49.270;8.696;2023-06-24T15:49:13;30.90;67.50
8095;DHT22;4090;49.270;8.696;2023-06-24T15:51:55;30.90;68.20
8095;DHT22;4090;49.270;8.696;2023-06-24T15:54:37;30.90;69.10
8095;DHT22;4090;49.270;8.696;2023-06-24T15:57:20;30.90;66.90
8095;DHT22;4090;49.270;8.696;2023-06-24T16:00:03;30.90;66.90
8095;DHT22;4090;49.270;8.696;2023-06-24T16:02:45;30.90;68.40
8095;DHT22;4090;49.270;8.696;2023-06-24T16:05:27;31.10;66.00
8095;DHT22;4090;49.270;8.696;2023-06-24T16:08:09;31.10;65.60
8095;DHT22;4090;49.270;8.696;2023-06-24T16:10:51;31.10;68.80
8095;DHT22;4090;49.270;8.696;2023-06-24T16:13:34;31.10;68.70
8095;DHT22;4090;49.270;8.696;2023-06-24T16:16:16;31.10;68.40
8095;DHT22;4090;49.270;8.696;2023-06-24T16:18:58;31.10;65.00
8095;DHT22;4090;49.270;8.696;2023-06-24T16:21:40;31.10;66.80
8095;DHT22;4090;49.270;8.696;2023-06-24T16:24:22;31.10;64.40
8095;DHT22;4090;49.270;8.696;2023-06-24T16:27:04;31.10;64.10
8095;DHT22;4090;49.270;8.696;2023-06-24T16:29:47;31.10;62.40
8095;DHT22;4090;49.270;8.696;2023-06-24T16:32:29;31.10;62.70
8095;DHT22;4090;49.270;8.696;2023-06-24T16:35:11;31.10;64.20
8095;DHT22;4090;49.270;8.696;2023-06-24T16:37:53;31.10;67.60
8095;DHT22;4090;49.270;8.696;2023-06-24T16:40:35;30.80;69.00
8095;DHT22;4090;49.270;8.696;2023-06-24T16:43:17;30.80;66.00
8095;DHT22;4090;49.270;8.696;2023-06-24T16:46:00;30.90;64.50
8095;DHT22;4090;49.270;8.696;2023-06-24T16:48:42;31.00;65.00
8095;DHT22;4090;49.270;8.696;2023-06-24T16:51:23;31.10;63.00
8095;DHT22;4090;49.270;8.696;2023-06-24T16:54:05;31.20;63.80
8095;DHT22;4090;49.270;8.696;2023-06-24T16:56:47;31.10;64.90
8095;DHT22;4090;49.270;8.696;2023-06-24T16:59:29;31.10;64.20
8095;DHT22;4090;49.270;8.696;2023-06-24T17:02:12;31.10;61.30
8095;DHT22;4090;49.270;8.696;2023-06-24T17:04:54;31.10;61.60
8095;DHT22;4090;49.270;8.696;2023-06-24T17:07:36;31.10;63.10
8095;DHT22;4090;49.270;8.696;2023-06-24T17:10:18;31.00;64.40
8095;DHT22;4090;49.270;8.696;2023-06-24T17:13:00;30.90;64.70
8095;DHT22;4090;49.270;8.696;2023-06-24T17:15:42;30.90;63.80
8095;DHT22;4090;49.270;8.696;2023-06-24T17:18:25;30.90;64.30
8095;DHT22;4090;49.270;8.696;2023-06-24T17:21:07;30.80;63.90
8095;DHT22;4090;49.270;8.696;2023-06-24T17:23:49;30.80;64.60
8095;DHT22;4090;49.270;8.696;2023-06-24T17:26:31;30.80;64.70
8095;DHT22;4090;49.270;8.696;2023-06-24T17:29:14;30.80;65.50
8095;DHT22;4090;49.270;8.696;2023-06-24T17:31:55;30.70;64.30
8095;DHT22;4090;49.270;8.696;2023-06-24T17:34:39;30.70;63.50
8095;DHT22;4090;49.270;8.696;2023-06-24T17:37:21;30.70;63.30
8095;DHT22;4090;49.270;8.696;2023-06-24T17:40:03;30.60;64.60
8095;DHT22;4090;49.270;8.696;2023-06-24T17:42:45;30.60;63.60
8095;DHT22;4090;49.270;8.696;2023-06-24T17:45:27;30.60;63.00